• Join FlightAware (Why Join?)
  • Login
  • US Flag 
01:28PM EDT


 

Airport Tracker/Info


-or-


 

Live Flight TrackerFlight Track Log ✈ AAY846 ✈ 15-May-2014 ✈ KPIE - KPIA

Flight Track Log - Related Links

Times and Time Zones

All times are in EDT time to prevent confusion due to time zone crossing. See the AAY846 flight status page for this flight to view local times or setup timezone preferences in your user account.

Time Position Orientation Groundspeed Altitude Reporting Facility
EDT Latitude Longitude Course Direction KTS MPH feet Rate Location/Type
09:23AM 27.8667 -82.6833 North 173 199 1,400  Level Tampa TRACON
09:24AM 27.8167 -82.7000 196° South 237 273 2,800 2,160 Climbing Tampa TRACON
09:26AM 27.9050 -82.7767 323° Northwest 299 344 7,300 2,640 Climbing Miami Center
09:27AM 27.9914 -82.7886 353° North 307 353 10,000 1,920 Climbing Miami Center
09:28AM 28.0831 -82.8031 352° North 321 369 11,300 1,260 Climbing Miami Center
09:29AM 28.6547 -82.6422 North  Level FlightAware Approximate
09:29AM 28.1953 -82.8214 352° North 390 449 12,700  Level Miami Center
09:30AM 28.2983 -82.8708 337° Northwest 401 461 15,200 2,340 Climbing Miami Center
09:31AM 28.4042 -82.9219 337° Northwest 407 468 17,500 1,920 Climbing Miami Center
09:32AM 28.5139 -82.9742 337° Northwest 420 483 19,200 1,620 Climbing Miami Center
09:33AM 28.6381 -83.0317 338° Northwest 432 497 20,900 1,560 Climbing Miami Center
09:34AM 28.7561 -83.0833 339° North 451 519 22,500 1,260 Climbing Miami Center
09:35AM 28.8836 -83.1119 349° North 465 535 23,600 960 Climbing Miami Center
09:36AM 29.0142 -83.1472 347° North 474 545 24,600 1,080 Climbing Miami Center
09:37AM 29.1450 -83.1914 344° North 485 558 25,900 600 Climbing Miami Center
09:38AM 29.2942 -83.2644 337° Northwest 484 557 25,900  Level Miami Center
09:39AM 29.4189 -83.3242 337° Northwest 484 557 25,900 120 Level Miami Center
09:40AM 29.5442 -83.3850 337° Northwest 484 557 26,200 780 Climbing Miami Center
09:41AM 29.6708 -83.4453 338° Northwest 484 557 27,500 1,200 Climbing Miami Center
09:42AM 29.8056 -83.4397 North 492 566 28,700 960 Climbing Miami Center
09:43AM 29.9325 -83.3717 25° Northeast 497 572 29,500 540 Climbing Miami Center
09:44AM 30.0597 -83.3033 25° Northeast 497 572 29,900 180 Climbing Miami Center
09:45AM 30.2053 -83.2986 North 485 558 29,900  Level Jacksonville Center
09:46AM 30.3303 -83.3667 335° Northwest 469 540 29,900  Level Jacksonville Center
09:47AM 30.4575 -83.4347 335° Northwest 475 547 29,900  Level Jacksonville Center
09:48AM 30.5844 -83.5056 334° Northwest 486 559 29,900  Level Jacksonville Center
09:49AM 30.6867 -83.5592 336° Northwest 499 574 29,900  Level Jacksonville Center
09:50AM 30.8261 -83.6378 334° Northwest 504 580 30,000  Climbing Jacksonville Center
09:51AM 30.9592 -83.7089 335° Northwest 504 580 30,000  Level Jacksonville Center
09:52AM 31.0986 -83.7878 334° Northwest 504 580 30,000  Level Jacksonville Center
09:53AM 31.2317 -83.8597 335° Northwest 510 587 30,000  Level Jacksonville Center
09:55AM 31.4169 -83.9611 335° Northwest 519 597 30,000  Level Atlanta Center
09:56AM 31.5506 -84.0339 335° Northwest 519 597 30,100 300 Climbing Atlanta Center
09:57AM 31.6839 -84.1072 335° Northwest 519 597 30,700 600 Climbing Atlanta Center
09:58AM 31.8175 -84.1806 335° Northwest 519 597 31,300 600 Climbing Atlanta Center
09:59AM 31.9467 -84.2494 336° Northwest 519 597 32,000 300 Climbing Atlanta Center
10:00AM 32.0781 -84.3208 335° Northwest 519 597 32,000  Level Atlanta Center
10:01AM 32.2053 -84.3947 334° Northwest 513 590 32,000  Level Atlanta Center
10:02AM 32.3367 -84.4667 335° Northwest 513 590 32,000  Level Atlanta Center
10:03AM 32.4678 -84.5386 335° Northwest 508 585 32,000  Level Atlanta Center
10:04AM 32.5969 -84.6158 333° Northwest 508 585 32,000  Level Atlanta Center
10:05AM 32.7258 -84.6858 335° Northwest 508 585 32,000  Level Atlanta Center
10:06AM 32.8653 -84.7658 334° Northwest 508 585 32,000  Level Atlanta Center
10:07AM 32.9964 -84.8389 335° Northwest 508 585 32,000  Level Atlanta Center
10:08AM 33.1294 -84.9069 337° Northwest 508 585 32,000  Level Atlanta Center
10:09AM 33.2625 -84.9828 335° Northwest 514 592 32,000  Level Atlanta Center
10:10AM 33.3892 -85.0589 333° Northwest 514 592 32,000  Level Atlanta Center
10:11AM 33.5203 -85.1328 335° Northwest 514 592 32,000  Level Atlanta Center
10:12AM 33.6489 -85.2067 334° Northwest 509 586 32,000  Level Atlanta Center
10:13AM 33.7756 -85.2758 336° Northwest 504 580 32,000  Level Atlanta Center
10:14AM 33.9019 -85.3628 330° Northwest 504 580 32,000  Level Atlanta Center
10:15AM 34.0306 -85.4325 336° Northwest 504 580 32,000  Level Atlanta Center
10:16AM 34.1572 -85.5022 336° Northwest 504 580 32,000  Level Atlanta Center
10:17AM 34.2814 -85.5747 334° Northwest 499 574 32,000  Level Atlanta Center
10:18AM 34.4078 -85.6528 333° Northwest 504 580 32,000  Level Atlanta Center
10:19AM 34.5300 -85.7256 334° Northwest 504 580 32,000  Level Atlanta Center
10:20AM 34.6583 -85.8014 334° Northwest 504 580 32,000  Level Atlanta Center
10:21AM 34.7886 -85.8725 336° Northwest 504 580 32,000  Level Atlanta Center
10:22AM 34.9147 -85.9486 334° Northwest 504 580 32,000  Level Atlanta Center
10:23AM 35.0242 -86.0197 332° Northwest 504 580 32,000  Level Atlanta Center
10:24AM 35.1503 -86.0939 334° Northwest 499 574 32,000  Level Atlanta Center
10:25AM 35.3231 -86.1981 334° Northwest 507 583 32,000  Level Memphis Center
10:26AM 35.4506 -86.2758 334° Northwest 510 587 32,000  Level Memphis Center
10:27AM 35.5800 -86.3544 334° Northwest 511 588 32,000  Level Memphis Center
10:28AM 35.7094 -86.4344 333° Northwest 511 588 32,000  Level Memphis Center
10:29AM 35.8614 -86.5264 334° Northwest 512 589 32,000  Level Memphis Center
10:30AM 35.9908 -86.6061 334° Northwest 513 590 32,000  Level Memphis Center
10:31AM 36.1206 -86.6853 334° Northwest 513 590 32,000  Level Memphis Center
10:32AM 36.2519 -86.7653 334° Northwest 519 597 32,000  Level Memphis Center
10:33AM 36.3856 -86.8469 334° Northwest 522 601 32,000  Level Memphis Center
10:34AM 36.5303 -86.9367 334° Northwest 525 604 32,000  Level Memphis Center
10:35AM 36.6633 -87.0211 333° Northwest 526 605 32,000  Level Memphis Center
10:36AM 36.7961 -87.1061 333° Northwest 529 609 32,000  Level Memphis Center
10:37AM 36.9297 -87.1903 333° Northwest 529 609 32,000  Level Memphis Center
10:39AM 37.0647 -87.2764 333° Northwest 534 615 32,000  Level Memphis Center
10:40AM 37.1992 -87.3619 333° Northwest 535 616 32,000  Level Memphis Center
10:41AM 37.3572 -87.4636 333° Northwest 539 620 32,000  Level Memphis Center
10:41AM 37.4256 -87.5064 334° Northwest 540 621 32,000  Level Indianapolis Center
10:42AM 37.5853 -87.6078 333° Northwest 542 624 32,000  Level Indianapolis Center
10:43AM 37.7214 -87.6967 333° Northwest 543 625 32,000 -300 Level Indianapolis Center
10:44AM 37.8453 -87.7744 334° Northwest 545 627 31,400 -1,260 Descending Indianapolis Center
10:45AM 37.9831 -87.8639 333° Northwest 548 631 29,400 -1,680 Descending Indianapolis Center
10:46AM 38.1225 -87.9569 332° Northwest 552 635 28,000 -720 Descending Indianapolis Center
10:47AM 38.2922 -88.0678 333° Northwest 560 644 28,000  Level Indianapolis Center
10:48AM 38.4336 -88.1617 333° Northwest 563 648 28,000  Level Indianapolis Center
10:50AM 38.5750 -88.2550 333° Northwest 564 649 28,000  Level Indianapolis Center
10:51AM 38.7156 -88.3483 333° Northwest 564 649 28,000  Level Indianapolis Center
10:52AM 38.8547 -88.4414 332° Northwest 564 649 28,000  Level Indianapolis Center
10:53AM 38.9911 -88.5336 332° Northwest 560 644 28,000 -60 Level Indianapolis Center
10:54AM 39.1936 -88.6692 333° Northwest 557 641 27,900 -660 Descending Kansas City Center
10:55AM 39.3194 -88.7553 332° Northwest 528 608 26,400 -1,620 Descending Kansas City Center
10:56AM 39.4325 -88.8311 333° Northwest 513 590 24,600 -1,980 Descending Kansas City Center
10:57AM 39.5686 -88.9269 332° Northwest 472 543 22,400 -1,920 Descending Kansas City Center
10:58AM 39.6750 -88.9967 333° Northwest 439 505 20,700 -1,680 Descending Kansas City Center
10:59AM 39.7722 -89.0642 332° Northwest 407 468 19,000 -1,500 Descending Kansas City Center
11:00AM 39.8617 -89.1289 331° Northwest 380 437 17,600 -1,440 Descending Kansas City Center
11:01AM 39.9464 -89.1864 333° Northwest 353 406 16,100 -1,440 Descending Kansas City Center
11:02AM 40.0233 -89.2419 331° Northwest 326 375 14,700 -1,440 Descending Kansas City Center
11:03AM 40.1106 -89.3008 333° Northwest 300 345 13,200 -1,680 Descending Kansas City Center
11:04AM 40.1856 -89.3428 337° Northwest 296 341 11,200 -1,560 Descending Kansas City Center
11:05AM 40.2561 -89.3867 335° Northwest 289 333 10,100 -1,200 Descending Kansas City Center
11:06AM 40.3189 -89.4217 337° Northwest 256 295 8,800 -1,380 Descending Kansas City Center
11:07AM 40.3792 -89.4572 336° Northwest 242 278 7,300 -1,560 Descending Kansas City Center
11:08AM 40.4358 -89.4911 336° Northwest 234 269 5,700 -1,920 Descending Kansas City Center
11:10AM 40.4944 -89.5267 335° Northwest 210 242 3,400 -1,620 Descending Kansas City Center
11:11AM 40.5422 -89.5556 335° Northwest 198 228 2,400 -540 Descending Kansas City Center
11:12AM 40.5794 -89.5767 337° Northwest 167 192 2,400 -120 Level Kansas City Center
11:13AM 40.6108 -89.6033 327° Northwest 144 166 2,200 -480 Descending Kansas City Center
11:14AM 40.6339 -89.6439 307° West 143 165 1,500 -720 Descending Kansas City Center
11:15AM 40.6564 -89.6842 306° West 139 160 700 -840 Descending Kansas City Center